Azusa, California
Current Conditions -  °F | °C
As of 9:47 AM on Friday 28 Nov 2014 (Local Time) from KPOC Reporting Station
Clear Clear  
Wind Chill: 68°   Ceiling: Unl
Heat Index: 68°   Visibility: 10mi
Dew Point: 23°   Wind: 6mph
Humidity: 18%   Direction: NA
Pressure: 30.05"   Gusts: NA
Location:  34.13°N, 117.9°W
Report Text: KPOC 281747Z VRB05KT 10SM CLR 20/M05 A3005
Loading
Personal Weather Stations






























Interactive Weather Map New forecast layout! Learn more

10-Day Weather Forecast

Advertisements
Track Severe Weather on mobile